sensor_id;sensor_type;location;lat;lon;timestamp;pressure;altitude;pressure_sealevel;temperature;humidity
929;BME280;451;47.988;7.842;2023-05-12T00:05:44;98195.84;;;12.58;100.00
929;BME280;451;47.988;7.842;2023-05-12T00:14:49;98201.13;;;12.36;100.00
929;BME280;451;47.988;7.842;2023-05-12T00:23:52;98195.19;;;12.13;100.00
929;BME280;451;47.988;7.842;2023-05-12T00:32:56;98185.84;;;12.53;100.00
929;BME280;451;47.988;7.842;2023-05-12T00:41:59;98170.34;;;12.43;100.00
929;BME280;451;47.988;7.842;2023-05-12T00:51:04;98176.34;;;12.80;100.00
929;BME280;451;47.988;7.842;2023-05-12T01:00:08;98177.28;;;13.00;100.00
929;BME280;451;47.988;7.842;2023-05-12T01:09:13;98176.72;;;13.32;100.00
929;BME280;451;47.988;7.842;2023-05-12T01:18:20;98178.41;;;12.35;100.00
929;BME280;451;47.988;7.842;2023-05-12T01:27:27;98125.63;;;12.29;100.00
929;BME280;451;47.988;7.842;2023-05-12T01:36:32;98169.97;;;12.96;100.00
929;BME280;451;47.988;7.842;2023-05-12T01:45:36;98170.78;;;12.96;100.00
929;BME280;451;47.988;7.842;2023-05-12T01:54:39;98146.06;;;12.76;100.00
929;BME280;451;47.988;7.842;2023-05-12T02:03:44;98151.97;;;12.78;100.00
929;BME280;451;47.988;7.842;2023-05-12T02:12:49;98167.59;;;12.51;100.00
929;BME280;451;47.988;7.842;2023-05-12T02:21:54;98169.81;;;12.76;100.00
929;BME280;451;47.988;7.842;2023-05-12T02:30:57;98160.84;;;12.70;100.00
929;BME280;451;47.988;7.842;2023-05-12T02:40:01;98152.53;;;12.45;100.00
929;BME280;451;47.988;7.842;2023-05-12T02:49:05;98161.50;;;12.51;100.00
929;BME280;451;47.988;7.842;2023-05-12T02:58:09;98172.19;;;12.22;100.00
929;BME280;451;47.988;7.842;2023-05-12T03:07:13;98166.75;;;12.51;100.00
929;BME280;451;47.988;7.842;2023-05-12T03:16:17;98167.59;;;12.51;100.00
929;BME280;451;47.988;7.842;2023-05-12T03:25:21;98156.59;;;12.97;100.00
929;BME280;451;47.988;7.842;2023-05-12T03:34:25;98165.06;;;12.43;100.00
929;BME280;451;47.988;7.842;2023-05-12T03:43:32;98153.81;;;12.56;100.00
929;BME280;451;47.988;7.842;2023-05-12T03:52:36;97993.47;;;11.83;100.00
929;BME280;451;47.988;7.842;2023-05-12T04:01:42;98148.66;;;12.97;100.00
929;BME280;451;47.988;7.842;2023-05-12T04:10:46;98149.44;;;13.19;100.00
929;BME280;451;47.988;7.842;2023-05-12T04:19:49;98158.44;;;13.31;100.00
929;BME280;451;47.988;7.842;2023-05-12T04:28:54;98152.88;;;13.19;100.00
929;BME280;451;47.988;7.842;2023-05-12T04:37:58;98153.16;;;13.31;100.00
929;BME280;451;47.988;7.842;2023-05-12T04:47:03;98161.22;;;13.16;100.00
929;BME280;451;47.988;7.842;2023-05-12T04:56:07;98170.50;;;13.47;100.00
929;BME280;451;47.988;7.842;2023-05-12T05:05:14;98178.31;;;13.27;100.00
929;BME280;451;47.988;7.842;2023-05-12T05:14:17;98175.84;;;12.70;100.00
929;BME280;451;47.988;7.842;2023-05-12T05:23:22;98188.97;;;12.84;100.00
929;BME280;451;47.988;7.842;2023-05-12T05:32:25;98173.81;;;13.21;100.00
929;BME280;451;47.988;7.842;2023-05-12T05:41:29;98175.84;;;13.60;100.00
929;BME280;451;47.988;7.842;2023-05-12T05:50:33;98164.00;;;14.03;100.00
929;BME280;451;47.988;7.842;2023-05-12T05:59:37;98192.28;;;13.55;100.00
929;BME280;451;47.988;7.842;2023-05-12T06:08:41;98199.34;;;13.89;100.00
929;BME280;451;47.988;7.842;2023-05-12T06:17:45;98198.31;;;14.64;100.00
929;BME280;451;47.988;7.842;2023-05-12T06:26:48;98201.34;;;15.20;100.00
929;BME280;451;47.988;7.842;2023-05-12T06:35:52;98213.78;;;14.54;100.00
929;BME280;451;47.988;7.842;2023-05-12T06:44:56;98212.97;;;14.60;100.00
929;BME280;451;47.988;7.842;2023-05-12T06:54:00;98164.94;;;14.96;100.00
929;BME280;451;47.988;7.842;2023-05-12T07:03:06;98208.69;;;15.18;100.00
929;BME280;451;47.988;7.842;2023-05-12T07:12:11;98207.97;;;15.76;98.19
929;BME280;451;47.988;7.842;2023-05-12T07:21:15;98204.78;;;15.47;100.00
929;BME280;451;47.988;7.842;2023-05-12T07:30:19;98211.25;;;16.22;98.11
929;BME280;451;47.988;7.842;2023-05-12T07:39:23;98199.69;;;16.10;93.49
929;BME280;451;47.988;7.842;2023-05-12T07:48:28;98176.69;;;16.67;92.37
929;BME280;451;47.988;7.842;2023-05-12T07:57:31;98198.88;;;17.65;77.50
929;BME280;451;47.988;7.842;2023-05-12T08:06:35;98199.94;;;18.42;75.16
929;BME280;451;47.988;7.842;2023-05-12T08:15:38;98198.91;;;17.95;72.58
929;BME280;451;47.988;7.842;2023-05-12T08:24:43;98201.75;;;18.11;76.05
929;BME280;451;47.988;7.842;2023-05-12T08:33:47;98187.84;;;18.28;74.31
929;BME280;451;47.988;7.842;2023-05-12T08:43:01;98150.13;;;18.31;70.01
929;BME280;451;47.988;7.842;2023-05-12T08:52:07;98190.47;;;19.11;66.31
929;BME280;451;47.988;7.842;2023-05-12T09:01:11;98193.25;;;19.04;69.44
929;BME280;451;47.988;7.842;2023-05-12T09:10:16;98202.53;;;18.30;72.77
929;BME280;451;47.988;7.842;2023-05-12T09:19:21;98208.59;;;17.89;79.22
929;BME280;451;47.988;7.842;2023-05-12T09:28:33;98215.00;;;16.39;87.54
929;BME280;451;47.988;7.842;2023-05-12T09:37:38;98209.94;;;16.94;85.66
929;BME280;451;47.988;7.842;2023-05-12T09:46:41;98201.09;;;17.43;80.17
929;BME280;451;47.988;7.842;2023-05-12T09:55:46;98197.97;;;17.10;77.54
929;BME280;451;47.988;7.842;2023-05-12T10:04:54;98185.56;;;18.43;73.46
929;BME280;451;47.988;7.842;2023-05-12T10:14:01;98156.09;;;21.08;60.86
929;BME280;451;47.988;7.842;2023-05-12T10:23:05;98191.91;;;17.82;74.03
929;BME280;451;47.988;7.842;2023-05-12T10:32:10;98171.66;;;17.81;74.78
929;BME280;451;47.988;7.842;2023-05-12T10:41:14;98168.56;;;18.85;70.08
929;BME280;451;47.988;7.842;2023-05-12T10:50:26;98126.41;;;19.69;64.91
929;BME280;451;47.988;7.842;2023-05-12T10:59:30;98145.44;;;19.72;65.30
929;BME280;451;47.988;7.842;2023-05-12T11:08:35;98111.31;;;19.46;67.64
929;BME280;451;47.988;7.842;2023-05-12T11:17:39;98158.03;;;19.49;67.91
929;BME280;451;47.988;7.842;2023-05-12T11:26:44;98120.78;;;18.07;71.51
929;BME280;451;47.988;7.842;2023-05-12T11:35:47;98129.97;;;19.00;72.21
929;BME280;451;47.988;7.842;2023-05-12T11:44:51;98156.72;;;19.51;64.02
929;BME280;451;47.988;7.842;2023-05-12T11:53:56;98151.06;;;19.88;60.09
929;BME280;451;47.988;7.842;2023-05-12T12:03:08;98139.09;;;20.80;57.11
929;BME280;451;47.988;7.842;2023-05-12T12:12:11;98139.13;;;21.36;57.73
929;BME280;451;47.988;7.842;2023-05-12T12:21:16;98106.69;;;21.10;56.17
929;BME280;451;47.988;7.842;2023-05-12T12:30:19;97999.69;;;18.51;63.93
929;BME280;451;47.988;7.842;2023-05-12T12:39:23;98161.44;;;18.56;84.26
929;BME280;451;47.988;7.842;2023-05-12T12:48:26;98153.00;;;17.99;91.13
929;BME280;451;47.988;7.842;2023-05-12T12:57:31;98166.06;;;17.34;90.07
929;BME280;451;47.988;7.842;2023-05-12T13:06:34;98167.31;;;16.58;92.02
929;BME280;451;47.988;7.842;2023-05-12T13:15:38;98168.53;;;18.02;79.38
929;BME280;451;47.988;7.842;2023-05-12T13:24:42;98053.81;;;17.69;74.43
929;BME280;451;47.988;7.842;2023-05-12T13:33:46;98068.81;;;19.56;69.33
929;BME280;451;47.988;7.842;2023-05-12T13:42:49;98173.41;;;19.12;73.95
929;BME280;451;47.988;7.842;2023-05-12T13:51:54;98158.34;;;18.71;83.29
929;BME280;451;47.988;7.842;2023-05-12T14:00:57;98156.84;;;18.33;75.44
929;BME280;451;47.988;7.842;2023-05-12T14:10:01;98158.38;;;18.41;65.33
929;BME280;451;47.988;7.842;2023-05-12T14:19:04;98154.41;;;19.20;65.63
929;BME280;451;47.988;7.842;2023-05-12T14:28:09;98142.97;;;20.56;59.14
929;BME280;451;47.988;7.842;2023-05-12T14:37:12;98135.88;;;19.02;65.69
929;BME280;451;47.988;7.842;2023-05-12T14:46:16;98131.00;;;20.59;64.02
929;BME280;451;47.988;7.842;2023-05-12T14:55:19;98153.09;;;19.69;70.05
929;BME280;451;47.988;7.842;2023-05-12T15:04:24;98151.13;;;17.15;100.00
929;BME280;451;47.988;7.842;2023-05-12T15:13:28;98167.22;;;16.46;100.00
929;BME280;451;47.988;7.842;2023-05-12T15:22:32;98154.41;;;16.05;100.00
929;BME280;451;47.988;7.842;2023-05-12T15:31:35;98185.44;;;16.04;100.00
929;BME280;451;47.988;7.842;2023-05-12T15:40:40;98172.81;;;15.93;100.00
929;BME280;451;47.988;7.842;2023-05-12T15:49:45;98164.94;;;16.18;100.00
929;BME280;451;47.988;7.842;2023-05-12T15:58:50;98157.00;;;16.43;100.00
929;BME280;451;47.988;7.842;2023-05-12T16:07:53;98097.75;;;15.61;100.00
929;BME280;451;47.988;7.842;2023-05-12T16:16:57;98166.06;;;15.40;100.00
929;BME280;451;47.988;7.842;2023-05-12T16:26:00;98090.50;;;15.82;100.00
929;BME280;451;47.988;7.842;2023-05-12T16:35:06;98106.69;;;16.05;100.00
929;BME280;451;47.988;7.842;2023-05-12T16:44:09;98147.25;;;15.67;100.00
929;BME280;451;47.988;7.842;2023-05-12T16:53:14;98133.69;;;16.51;100.00
929;BME280;451;47.988;7.842;2023-05-12T17:02:17;98153.72;;;16.47;100.00
929;BME280;451;47.988;7.842;2023-05-12T17:11:22;98168.78;;;16.53;100.00
929;BME280;451;47.988;7.842;2023-05-12T17:20:27;98153.41;;;15.99;100.00
929;BME280;451;47.988;7.842;2023-05-12T17:29:32;98167.91;;;15.97;100.00
929;BME280;451;47.988;7.842;2023-05-12T17:38:35;98054.13;;;15.00;100.00
929;BME280;451;47.988;7.842;2023-05-12T17:47:40;98168.88;;;15.51;100.00
929;BME280;451;47.988;7.842;2023-05-12T17:56:43;98177.44;;;15.60;100.00
929;BME280;451;47.988;7.842;2023-05-12T18:05:49;98142.03;;;15.34;100.00
929;BME280;451;47.988;7.842;2023-05-12T18:14:53;98156.34;;;15.07;100.00
929;BME280;451;47.988;7.842;2023-05-12T18:23:57;98200.31;;;15.41;100.00
929;BME280;451;47.988;7.842;2023-05-12T18:33:00;98182.44;;;14.90;100.00
929;BME280;451;47.988;7.842;2023-05-12T18:42:05;98209.91;;;15.22;100.00
929;BME280;451;47.988;7.842;2023-05-12T18:51:09;98208.50;;;15.00;100.00
929;BME280;451;47.988;7.842;2023-05-12T19:00:14;98222.94;;;14.71;100.00
929;BME280;451;47.988;7.842;2023-05-12T19:09:17;98238.66;;;14.92;100.00
929;BME280;451;47.988;7.842;2023-05-12T19:18:22;98215.22;;;14.89;100.00
929;BME280;451;47.988;7.842;2023-05-12T19:27:25;98272.66;;;15.02;100.00
929;BME280;451;47.988;7.842;2023-05-12T19:36:31;98243.53;;;15.09;100.00
929;BME280;451;47.988;7.842;2023-05-12T19:45:34;98265.31;;;14.98;100.00
929;BME280;451;47.988;7.842;2023-05-12T19:54:40;98240.59;;;14.44;100.00
929;BME280;451;47.988;7.842;2023-05-12T20:03:43;98280.03;;;14.33;100.00
929;BME280;451;47.988;7.842;2023-05-12T20:12:48;98254.84;;;14.50;100.00
929;BME280;451;47.988;7.842;2023-05-12T20:21:56;98293.94;;;14.48;100.00
929;BME280;451;47.988;7.842;2023-05-12T20:31:00;98287.81;;;14.41;100.00
929;BME280;451;47.988;7.842;2023-05-12T20:40:04;98301.06;;;14.06;100.00
929;BME280;451;47.988;7.842;2023-05-12T20:49:09;98312.34;;;13.87;100.00
929;BME280;451;47.988;7.842;2023-05-12T20:58:12;98311.97;;;13.90;100.00
929;BME280;451;47.988;7.842;2023-05-12T21:07:16;98304.06;;;13.62;100.00
929;BME280;451;47.988;7.842;2023-05-12T21:16:19;98310.88;;;13.50;100.00
929;BME280;451;47.988;7.842;2023-05-12T21:25:23;98300.44;;;13.36;100.00
929;BME280;451;47.988;7.842;2023-05-12T21:34:26;98319.03;;;13.49;100.00
929;BME280;451;47.988;7.842;2023-05-12T21:43:31;98307.09;;;13.31;100.00
929;BME280;451;47.988;7.842;2023-05-12T21:52:35;98317.84;;;13.09;100.00
929;BME280;451;47.988;7.842;2023-05-12T22:01:39;98323.69;;;13.25;100.00
929;BME280;451;47.988;7.842;2023-05-12T22:10:42;98323.91;;;13.24;100.00
929;BME280;451;47.988;7.842;2023-05-12T22:19:47;98326.88;;;13.14;100.00
929;BME280;451;47.988;7.842;2023-05-12T22:28:49;98331.03;;;12.87;100.00
929;BME280;451;47.988;7.842;2023-05-12T22:37:54;98341.19;;;12.69;100.00
929;BME280;451;47.988;7.842;2023-05-12T22:46:57;98345.41;;;12.64;100.00
929;BME280;451;47.988;7.842;2023-05-12T22:56:01;98339.50;;;11.96;100.00
929;BME280;451;47.988;7.842;2023-05-12T23:05:05;98340.50;;;12.10;100.00
929;BME280;451;47.988;7.842;2023-05-12T23:14:10;98348.94;;;11.91;100.00
929;BME280;451;47.988;7.842;2023-05-12T23:23:13;98350.63;;;11.69;100.00
929;BME280;451;47.988;7.842;2023-05-12T23:32:18;98335.09;;;11.59;100.00
929;BME280;451;47.988;7.842;2023-05-12T23:41:21;98344.50;;;11.39;100.00
929;BME280;451;47.988;7.842;2023-05-12T23:50:25;98340.59;;;11.50;100.00
929;BME280;451;47.988;7.842;2023-05-12T23:59:28;98355.72;;;11.33;100.00
